This is the latest recevied weather packets stored in our database for station/object DC4THF-13. If no packets are shown the sender has not sent any weather packets the latest 10 day(s).
| Time | Temp. | Humidity | Pressure | Rain* | Wind** | Luminosity | Snow |
|---|---|---|---|---|---|---|---|
| 1787485391 | 17.22° C | 56% | 1015.1 hPa | 0 mm | - | - | - |
| 1787484788 | 17.78° C | 51% | 1015.1 hPa | 0 mm | - | - | - |
| 1787484185 | 18.33° C | 51% | 1015.1 hPa | 0 mm | - | - | - |
| 1787483582 | 18.33° C | 53% | 1015.1 hPa | 0 mm | - | - | - |
| 1787482979 | 17.78° C | 53% | 1015.1 hPa | 0 mm | - | - | - |
| 1787482376 | 17.78° C | 55% | 1015.1 hPa | 0 mm | - | - | - |
| 1787481773 | 17.22° C | 60% | 1015.2 hPa | 0 mm | - | - | - |
| 1787481170 | 17.22° C | 60% | 1015.1 hPa | 0 mm | - | - | - |
| 1787480567 | 17.22° C | 60% | 1015 hPa | 0 mm | - | - | - |
| 1787479964 | 18.33° C | 54% | 1015.1 hPa | 0 mm | - | - | - |
| 1787479361 | 18.33° C | 55% | 1015 hPa | 0 mm | - | - | - |
| 1787478758 | 17.78° C | 60% | 1015 hPa | 0 mm | - | - | - |
| 1787478150 | 16.67° C | 62% | 1015.1 hPa | 0 mm | - | - | - |
| 1787477547 | 17.22° C | 62% | 1015.1 hPa | 0 mm | - | - | - |
| 1787476937 | 17.78° C | 60% | 1015.1 hPa | 0 mm | - | - | - |
| 1787476334 | 17.22° C | 65% | 1015.1 hPa | 0 mm | - | - | - |
| 1787475785 | 16.67° C | 64% | 1015.2 hPa | 0 mm | - | - | - |
| 1787475182 | 16.67° C | 65% | 1015.2 hPa | 0 mm | - | - | - |
| 1787474573 | 16.67° C | 66% | 1015.1 hPa | 0 mm | - | - | - |
| 1787473963 | 16.11° C | 66% | 1015.1 hPa | 0 mm | - | - | - |
| 1787473360 | 16.11° C | 65% | 1015 hPa | 0 mm | - | - | - |
| 1787472750 | 16.67° C | 66% | 1015 hPa | 0 mm | - | - | - |
| 1787472147 | 16.67° C | 66% | 1015 hPa | 0 mm | - | - | - |
| 1787471540 | 16.11° C | 68% | 1015 hPa | 0 mm | - | - | - |
| 1787470937 | 16.11° C | 69% | 1015 hPa | 0 mm | - | - | - |
* Rain latest hour (hover to see other rain measurements)
** Current wind speed in m/s (hover to see current wind gust speed)